| time (UTC) | temp C | wind direction | speed KPH | gust KPH | rain 1hr cm | rain 24hr cm | rain mn cm | humidity % | barometer mb |
| 20260503180033 | 16 | 167 | 6.4 | 11.3 | 0.00 | 0.00 | 0.00 | 53 | 1012.9 |
| 20260503175511 | 15 | 245 | 3.2 | 12.9 | 0.00 | 0.00 | 0.00 | 55 | 1012.9 |
| 20260503175054 | 15 | 204 | 4.8 | 12.9 | 0.00 | 0.00 | 0.00 | 55 | 1013.0 |
| 20260503174533 | 15 | 269 | 6.4 | 16.1 | 0.00 | 0.00 | 0.00 | 51 | 1012.9 |
| 20260503174013 | 15 | 196 | 6.4 | 16.1 | 0.00 | 0.00 | 0.00 | 53 | 1012.8 |
| 20260503173556 | 15 | 212 | 3.2 | 19.3 | 0.00 | 0.00 | 0.00 | 51 | 1012.8 |
| 20260503173039 | 15 | 281 | 6.4 | 19.3 | 0.00 | 0.00 | 0.00 | 52 | 1012.8 |
| 20260503172514 | 15 | 217 | 1.6 | 14.5 | 0.00 | 0.00 | 0.00 | 50 | 1012.9 |
| 20260503172058 | 15 | 212 | 4.8 | 12.9 | 0.00 | 0.00 | 0.00 | 50 | 1012.9 |
| 20260503171545 | 15 | 315 | 3.2 | 12.9 | 0.00 | 0.00 | 0.00 | 46 | 1012.9 |
| 20260503171017 | 14 | 259 | 1.6 | 12.9 | 0.00 | 0.00 | 0.00 | 44 | 1012.9 |
| 20260503170558 | 14 | 229 | 3.2 | 17.7 | 0.00 | 0.00 | 0.00 | 46 | 1012.9 |
| 20260503150516 | 12 | 290 | 1.6 | 9.7 | 0.00 | 0.00 | 0.00 | 32 | 1012.3 |
| 20260503131049 | 11 | 213 | 1.6 | 9.7 | 0.00 | 0.00 | 0.00 | 27 | 1011.0 |
| 20260503130527 | 11 | 265 | 0.0 | 8.0 | 0.00 | 0.00 | 0.00 | 26 | 1010.8 |
| 20260503130108 | 11 | 217 | 1.6 | 8.0 | 0.00 | 0.00 | 0.00 | 26 | 1010.8 |
| 20260503110546 | 11 | 288 | 0.0 | 6.4 | 0.00 | 0.00 | 0.00 | 21 | 1010.9 |
| 20260503081557 | 12 | 295 | 0.0 | 3.2 | 0.00 | 0.00 | 0.00 | 22 | 1011.6 |
| 20260503081036 | 12 | 275 | 0.0 | 3.2 | 0.00 | 0.00 | 0.00 | 22 | 1011.6 |
| 20260503080525 | 12 | 228 | 0.0 | 1.6 | 0.00 | 0.00 | 0.00 | 22 | 1011.8 |
| 20260503072048 | 12 | 254 | 0.0 | 1.6 | 0.00 | 0.00 | 0.00 | 21 | 1011.7 |
| 20260503071527 | 12 | 254 | 0.0 | 1.6 | 0.00 | 0.00 | 0.00 | 21 | 1011.7 |
| 20260503071008 | 12 | 253 | 0.0 | 1.6 | 0.00 | 0.00 | 0.00 | 22 | 1011.6 |
| 20260503070554 | 12 | 253 | 0.0 | 3.2 | 0.00 | 0.00 | 0.00 | 22 | 1011.7 |
| 20260503055002 | 12 | 238 | 0.0 | 1.6 | 0.00 | 0.00 | 0.00 | 25 | 1012.1 |
| 20260503054556 | 12 | 236 | 0.0 | 1.6 | 0.00 | 0.00 | 0.00 | 26 | 1012.2 |
| 20260503054024 | 12 | 345 | 0.0 | 3.2 | 0.00 | 0.00 | 0.00 | 25 | 1012.2 |
| 20260503053503 | 12 | 326 | 0.0 | 8.0 | 0.00 | 0.00 | 0.00 | 25 | 1012.1 |
| 20260503053046 | 12 | 337 | 0.0 | 8.0 | 0.00 | 0.00 | 0.00 | 25 | 1012.1 |
| 20260503052525 | 12 | 278 | 0.0 | 4.8 | 0.00 | 0.00 | 0.00 | 25 | 1012.2 |
| 20260503052007 | 12 | 246 | 0.0 | 3.2 | 0.00 | 0.00 | 0.00 | 25 | 1012.2 |
| 20260503051547 | 12 | 315 | 0.0 | 3.2 | 0.00 | 0.00 | 0.00 | 25 | 1012.1 |
| 20260503051023 | 12 | 320 | 0.0 | 4.8 | 0.00 | 0.00 | 0.00 | 24 | 1012.1 |
| 20260503050504 | 12 | 259 | 0.0 | 3.2 | 0.00 | 0.00 | 0.00 | 24 | 1012.2 |
| 20260503050046 | 12 | 255 | 0.0 | 6.4 | 0.00 | 0.00 | 0.00 | 26 | 1012.1 |
| 20260503045526 | 12 | 321 | 0.0 | 6.4 | 0.00 | 0.00 | 0.00 | 26 | 1012.1 |
| 20260503045007 | 12 | 332 | 0.0 | 4.8 | 0.00 | 0.00 | 0.00 | 26 | 1012.1 |
| 20260503044548 | 12 | 328 | 0.0 | 3.2 | 0.00 | 0.00 | 0.00 | 26 | 1012.1 |
| 20260503044027 | 12 | 314 | 0.0 | 3.2 | 0.00 | 0.00 | 0.00 | 27 | 1012.1 |
| 20260503043506 | 12 | 338 | 0.0 | 8.0 | 0.00 | 0.00 | 0.00 | 27 | 1012.0 |
| 20260503043050 | 12 | 340 | 0.0 | 8.0 | 0.00 | 0.00 | 0.00 | 28 | 1012.0 |
| 20260503042529 | 12 | 305 | 0.0 | 4.8 | 0.00 | 0.00 | 0.00 | 28 | 1012.0 |
| 20260503042008 | 12 | 318 | 0.0 | 4.8 | 0.00 | 0.00 | 0.00 | 28 | 1011.9 |
| 20260503041551 | 12 | 211 | 0.0 | 6.4 | 0.00 | 0.00 | 0.00 | 28 | 1011.9 |
| 20260503041033 | 12 | 350 | 0.0 | 6.4 | 0.00 | 0.00 | 0.00 | 28 | 1011.9 |
| 20260503040510 | 12 | 339 | 0.0 | 6.4 | 0.00 | 0.00 | 0.00 | 28 | 1011.9 |
| 20260503040104 | 12 | 69 | 1.6 | 6.4 | 0.00 | 0.00 | 0.00 | 29 | 1011.9 |
| 20260503035532 | 12 | 257 | 0.0 | 6.4 | 0.00 | 0.00 | 0.00 | 29 | 1011.8 |
| 20260503035011 | 12 | 15 | 1.6 | 6.4 | 0.00 | 0.00 | 0.00 | 30 | 1011.8 |
| 20260503034555 | 12 | 252 | 0.0 | 3.2 | 0.00 | 0.00 | 0.00 | 29 | 1011.7 |
| 20260503034036 | 12 | 337 | 0.0 | 3.2 | 0.00 | 0.00 | 0.00 | 29 | 1011.7 |
| 20260503033513 | 12 | 311 | 0.0 | 3.2 | 0.00 | 0.00 | 0.00 | 30 | 1011.7 |
| 20260503033056 | 12 | 311 | 0.0 | 3.2 | 0.00 | 0.00 | 0.00 | 30 | 1011.6 |
| 20260503032535 | 13 | 359 | 0.0 | 3.2 | 0.00 | 0.00 | 0.00 | 32 | 1011.5 |
| 20260503032015 | 13 | 354 | 0.0 | 3.2 | 0.00 | 0.00 | 0.00 | 32 | 1011.3 |
| 20260503031606 | 13 | 321 | 0.0 | 3.2 | 0.00 | 0.00 | 0.00 | 33 | 1011.3 |
| 20260503031037 | 13 | 333 | 0.0 | 4.8 | 0.00 | 0.00 | 0.00 | 33 | 1011.2 |
| 20260503030516 | 13 | 354 | 0.0 | 4.8 | 0.00 | 0.00 | 0.00 | 34 | 1011.2 |
| 20260503030059 | 13 | 6 | 0.0 | 6.4 | 0.00 | 0.00 | 0.00 | 35 | 1011.1 |
| 20260503025538 | 13 | 335 | 0.0 | 8.0 | 0.00 | 0.00 | 0.00 | 35 | 1011.1 |
| 20260503025018 | 13 | 261 | 0.0 | 4.8 | 0.00 | 0.00 | 0.00 | 35 | 1011.1 |
| 20260503024603 | 13 | 286 | 0.0 | 4.8 | 0.00 | 0.00 | 0.00 | 33 | 1011.2 |
| 20260503024041 | 13 | 307 | 0.0 | 9.7 | 0.00 | 0.00 | 0.00 | 31 | 1011.1 |
| 20260503023520 | 13 | 199 | 0.0 | 11.3 | 0.00 | 0.00 | 0.00 | 31 | 1011.1 |
| 20260503023102 | 13 | 280 | 1.6 | 11.3 | 0.00 | 0.00 | 0.00 | 33 | 1011.2 |
| 20260503022541 | 13 | 240 | 1.6 | 11.3 | 0.00 | 0.00 | 0.00 | 34 | 1011.1 |
| 20260503022020 | 13 | 153 | 3.2 | 11.3 | 0.00 | 0.00 | 0.00 | 35 | 1011.1 |
| 20260503021604 | 13 | 223 | 0.0 | 11.3 | 0.00 | 0.00 | 0.00 | 35 | 1011.1 |
| 20260503021042 | 13 | 175 | 1.6 | 12.9 | 0.00 | 0.00 | 0.00 | 37 | 1011.1 |
| 20260503020522 | 13 | 225 | 3.2 | 12.9 | 0.00 | 0.00 | 0.00 | 39 | 1011.2 |
| 20260503020001 | 13 | 244 | 1.6 | 9.7 | 0.00 | 0.00 | 0.00 | 40 | 1011.1 |
| 20260503015546 | 13 | 241 | 4.8 | 9.7 | 0.00 | 0.00 | 0.00 | 41 | 1011.1 |
| 20260503015025 | 13 | 245 | 4.8 | 12.9 | 0.00 | 0.00 | 0.00 | 43 | 1011.2 |
| 20260503014503 | 13 | 195 | 1.6 | 14.5 | 0.00 | 0.00 | 0.00 | 43 | 1011.2 |
| 20260503014047 | 13 | 184 | 3.2 | 14.5 | 0.00 | 0.00 | 0.00 | 44 | 1011.2 |
| 20260503013525 | 13 | 198 | 4.8 | 14.5 | 0.00 | 0.00 | 0.00 | 44 | 1011.2 |
| 20260503013005 | 14 | 239 | 1.6 | 11.3 | 0.00 | 0.00 | 0.00 | 46 | 1011.4 |
| 20260503012548 | 14 | 203 | 3.2 | 11.3 | 0.00 | 0.00 | 0.00 | 47 | 1011.3 |
| 20260503012031 | 14 | 234 | 3.2 | 14.5 | 0.00 | 0.00 | 0.00 | 47 | 1011.3 |
| 20260503011506 | 14 | 212 | 6.4 | 14.5 | 0.00 | 0.00 | 0.00 | 49 | 1011.4 |
| 20260503011049 | 14 | 233 | 0.0 | 12.9 | 0.00 | 0.00 | 0.00 | 47 | 1011.3 |
| 20260503010528 | 14 | 178 | 3.2 | 12.9 | 0.00 | 0.00 | 0.00 | 48 | 1011.3 |
| 20260503010007 | 14 | 228 | 3.2 | 16.1 | 0.00 | 0.00 | 0.00 | 50 | 1011.3 |
| 20260503005553 | 15 | 224 | 3.2 | 16.1 | 0.00 | 0.00 | 0.00 | 51 | 1011.4 |
| 20260503005030 | 15 | 238 | 1.6 | 11.3 | 0.00 | 0.00 | 0.00 | 51 | 1011.3 |
| 20260503004510 | 15 | 242 | 3.2 | 11.3 | 0.00 | 0.00 | 0.00 | 52 | 1011.4 |
| 20260503004057 | 15 | 270 | 3.2 | 14.5 | 0.00 | 0.00 | 0.00 | 50 | 1011.4 |
| 20260503003531 | 15 | 169 | 6.4 | 14.5 | 0.00 | 0.00 | 0.00 | 51 | 1011.4 |
| 20260503003011 | 15 | 229 | 4.8 | 12.9 | 0.00 | 0.00 | 0.00 | 52 | 1011.4 |
| 20260503002555 | 15 | 157 | 3.2 | 12.9 | 0.00 | 0.00 | 0.00 | 50 | 1011.4 |
| 20260503002035 | 15 | 248 | 3.2 | 12.9 | 0.00 | 0.00 | 0.00 | 50 | 1011.4 |
| 20260503001513 | 15 | 207 | 3.2 | 11.3 | 0.00 | 0.00 | 0.00 | 50 | 1011.4 |
| 20260503001055 | 15 | 219 | 4.8 | 12.9 | 0.00 | 0.00 | 0.00 | 50 | 1011.4 |
| 20260503000535 | 15 | 228 | 3.2 | 14.5 | 0.00 | 0.00 | 0.00 | 50 | 1011.5 |
| 20260503000015 | 15 | 174 | 3.2 | 16.1 | 0.00 | 0.00 | 0.00 | 48 | 1011.5 |
| 20260502235557 | 15 | 167 | 4.8 | 17.7 | 0.00 | 0.00 | 0.00 | 47 | 1011.6 |
| 20260502235036 | 15 | 227 | 11.3 | 17.7 | 0.00 | 0.00 | 0.00 | 47 | 1011.6 |
| 20260502234526 | 15 | 150 | 3.2 | 22.5 | 0.00 | 0.00 | 0.00 | 45 | 1011.7 |
| 20260502234100 | 15 | 215 | 11.3 | 22.5 | 0.00 | 0.00 | 0.00 | 48 | 1011.7 |
| 20260502233539 | 15 | 149 | 9.7 | 24.1 | 0.00 | 0.00 | 0.00 | 47 | 1011.7 |
| 20260502233018 | 15 | 157 | 11.3 | 24.1 | 0.00 | 0.00 | 0.00 | 47 | 1011.8 |
| 20260502232606 | 15 | 155 | 12.9 | 24.1 | 0.00 | 0.00 | 0.00 | 48 | 1011.8 |
| 20260502232042 | 15 | 204 | 12.9 | 24.1 | 0.00 | 0.00 | 0.00 | 49 | 1011.9 |
| 20260502231520 | 15 | 205 | 12.9 | 27.4 | 0.00 | 0.00 | 0.00 | 51 | 1012.0 |
| 20260502231106 | 15 | 177 | 6.4 | 27.4 | 0.00 | 0.00 | 0.00 | 50 | 1012.0 |
| 20260502230542 | 16 | 172 | 9.7 | 17.7 | 0.00 | 0.00 | 0.00 | 49 | 1012.1 |
| 20260502230029 | 15 | 192 | 8.0 | 22.5 | 0.00 | 0.00 | 0.00 | 51 | 1012.2 |
| 20260502225502 | 15 | 228 | 4.8 | 19.3 | 0.00 | 0.00 | 0.00 | 49 | 1012.3 |
| 20260502225043 | 15 | 150 | 6.4 | 24.1 | 0.00 | 0.00 | 0.00 | 50 | 1012.3 |
| 20260502224523 | 15 | 170 | 11.3 | 29.0 | 0.00 | 0.00 | 0.00 | 49 | 1012.3 |
| 20260502224002 | 15 | 158 | 8.0 | 29.0 | 0.00 | 0.00 | 0.00 | 49 | 1012.4 |
| 20260502223545 | 15 | 200 | 14.5 | 25.7 | 0.00 | 0.00 | 0.00 | 48 | 1012.5 |
| 20260502223025 | 15 | 157 | 12.9 | 27.4 | 0.00 | 0.00 | 0.00 | 49 | 1012.5 |
| 20260502222503 | 15 | 240 | 4.8 | 22.5 | 0.00 | 0.00 | 0.00 | 48 | 1012.6 |
| 20260502222048 | 15 | 140 | 12.9 | 24.1 | 0.00 | 0.00 | 0.00 | 47 | 1012.7 |
| 20260502221526 | 14 | 240 | 12.9 | 24.1 | 0.00 | 0.00 | 0.00 | 47 | 1012.8 |
| 20260502221005 | 15 | 173 | 14.5 | 24.1 | 0.00 | 0.00 | 0.00 | 47 | 1012.8 |
| 20260502220549 | 15 | 144 | 8.0 | 25.7 | 0.00 | 0.00 | 0.00 | 48 | 1012.9 |
| 20260502220029 | 15 | 184 | 14.5 | 25.7 | 0.00 | 0.00 | 0.00 | 44 | 1012.9 |
| 20260502215507 | 15 | 198 | 6.4 | 22.5 | 0.00 | 0.00 | 0.00 | 49 | 1013.0 |
| 20260502215053 | 15 | 243 | 14.5 | 22.5 | 0.00 | 0.00 | 0.00 | 50 | 1012.9 |
| 20260502214529 | 15 | 191 | 8.0 | 19.3 | 0.00 | 0.00 | 0.00 | 51 | 1013.0 |
| 20260502214008 | 15 | 155 | 6.4 | 25.7 | 0.00 | 0.00 | 0.00 | 51 | 1013.0 |
| 20260502213548 | 15 | 228 | 8.0 | 27.4 | 0.00 | 0.00 | 0.00 | 51 | 1012.9 |
| 20260502213027 | 15 | 208 | 12.9 | 27.4 | 0.00 | 0.00 | 0.00 | 48 | 1013.0 |
| 20260502212509 | 15 | 176 | 12.9 | 29.0 | 0.00 | 0.00 | 0.00 | 48 | 1013.1 |
| 20260502212049 | 15 | 139 | 11.3 | 24.1 | 0.00 | 0.00 | 0.00 | 48 | 1013.1 |
| 20260502211529 | 15 | 200 | 6.4 | 17.7 | 0.00 | 0.00 | 0.00 | 47 | 1013.1 |
| 20260502211009 | 15 | 212 | 8.0 | 20.9 | 0.00 | 0.00 | 0.00 | 46 | 1013.2 |
| 20260502210551 | 15 | 207 | 6.4 | 17.7 | 0.00 | 0.00 | 0.00 | 46 | 1013.3 |
| 20260502210030 | 15 | 250 | 4.8 | 16.1 | 0.00 | 0.00 | 0.00 | 45 | 1013.4 |
| 20260502205510 | 15 | 203 | 8.0 | 16.1 | 0.00 | 0.00 | 0.00 | 43 | 1013.4 |
| 20260502205052 | 15 | 157 | 1.6 | 11.3 | 0.00 | 0.00 | 0.00 | 45 | 1013.4 |
| 20260502204533 | 15 | 266 | 3.2 | 20.9 | 0.00 | 0.00 | 0.00 | 42 | 1013.5 |
| 20260502204013 | 15 | 323 | 0.0 | 25.7 | 0.00 | 0.00 | 0.00 | 41 | 1013.5 |
| 20260502203604 | 14 | 181 | 8.0 | 27.4 | 0.00 | 0.00 | 0.00 | 42 | 1013.6 |
| 20260502203042 | 15 | 147 | 6.4 | 27.4 | 0.00 | 0.00 | 0.00 | 41 | 1013.6 |
| 20260502202520 | 14 | 170 | 11.3 | 27.4 | 0.00 | 0.00 | 0.00 | 39 | 1013.7 |
| 20260502202104 | 14 | 149 | 9.7 | 24.1 | 0.00 | 0.00 | 0.00 | 35 | 1013.5 |
| 20260502201554 | 14 | 116 | 4.8 | 29.0 | 0.00 | 0.00 | 0.00 | 31 | 1013.6 |
| 20260502201030 | 14 | 140 | 11.3 | 29.0 | 0.00 | 0.00 | 0.00 | 34 | 1013.7 |
| 20260502200509 | 13 | 124 | 3.2 | 24.1 | 0.00 | 0.00 | 0.00 | 30 | 1013.6 |
| 20260502200053 | 13 | 122 | 4.8 | 25.7 | 0.00 | 0.00 | 0.00 | 27 | 1013.6 |
| 20260502195531 | 13 | 112 | 6.4 | 25.7 | 0.00 | 0.00 | 0.00 | 28 | 1013.7 |
| 20260502195011 | 13 | 186 | 11.3 | 24.1 | 0.00 | 0.00 | 0.00 | 29 | 1013.6 |
| 20260502194554 | 13 | 53 | 6.4 | 24.1 | 0.00 | 0.00 | 0.00 | 28 | 1013.7 |
| 20260502194038 | 13 | 130 | 11.3 | 22.5 | 0.00 | 0.00 | 0.00 | 30 | 1013.8 |
| 20260502193513 | 14 | 163 | 8.0 | 17.7 | 0.00 | 0.00 | 0.00 | 31 | 1013.7 |
| 20260502193103 | 14 | 182 | 3.2 | 8.0 | 0.00 | 0.00 | 0.00 | 30 | 1013.7 |
| 20260502192535 | 14 | 343 | 3.2 | 19.3 | 0.00 | 0.00 | 0.00 | 27 | 1013.7 |
| 20260502192013 | 13 | 148 | 4.8 | 19.3 | 0.00 | 0.00 | 0.00 | 28 | 1013.7 |
| 20260502191601 | 13 | 210 | 3.2 | 24.1 | 0.00 | 0.00 | 0.00 | 32 | 1013.7 |
| 20260502191045 | 13 | 91 | 1.6 | 24.1 | 0.00 | 0.00 | 0.00 | 26 | 1013.7 |
| 20260502190524 | 13 | 112 | 8.0 | 27.4 | 0.00 | 0.00 | 0.00 | 26 | 1013.7 |
| 20260502190004 | 13 | 190 | 11.3 | 17.7 | 0.00 | 0.00 | 0.00 | 23 | 1013.7 |
| 20260502185546 | 13 | 101 | 6.4 | 29.0 | 0.00 | 0.00 | 0.00 | 26 | 1013.8 |
| 20260502185025 | 13 | 178 | 9.7 | 29.0 | 0.00 | 0.00 | 0.00 | 23 | 1013.9 |
| 20260502184513 | 13 | 221 | 9.7 | 20.9 | 0.00 | 0.00 | 0.00 | 22 | 1013.9 |
| 20260502184048 | 13 | 153 | 6.4 | 20.9 | 0.00 | 0.00 | 0.00 | 21 | 1013.8 |
| 20260502183527 | 13 | 150 | 4.8 | 14.5 | 0.00 | 0.00 | 0.00 | 21 | 1013.8 |
| 20260502183016 | 13 | 159 | 6.4 | 16.1 | 0.00 | 0.00 | 0.00 | 20 | 1013.8 |
| 20260502182550 | 13 | 105 | 6.4 | 16.1 | 0.00 | 0.00 | 0.00 | 20 | 1013.8 |
| 20260502182036 | 12 | 145 | 0.0 | 11.3 | 0.00 | 0.00 | 0.00 | 13 | 1013.8 |
| 20260502181519 | 12 | 105 | 3.2 | 11.3 | 0.00 | 0.00 | 0.00 | 11 | 1013.7 |
| 20260502181058 | 12 | 75 | 1.6 | 8.0 | 0.00 | 0.00 | 0.00 | 13 | 1013.8 |
| 20260502180542 | 12 | 228 | 0.0 | 8.0 | 0.00 | 0.00 | 0.00 | 11 | 1013.8 |